createdAt,value
2022-12-31T00:01:58.118Z,100115.03
2022-12-31T00:04:25.268Z,100108.13
2022-12-31T00:06:52.264Z,100118.53
2022-12-31T00:09:19.299Z,100103.84
2022-12-31T00:11:46.364Z,100121.94
2022-12-31T00:14:13.441Z,100107.31
2022-12-31T00:16:42.064Z,100108.19
2022-12-31T00:19:12.135Z,100111.66
2022-12-31T00:21:39.529Z,100121.09
2022-12-31T00:24:07.902Z,100122.78
2022-12-31T00:26:36.662Z,100125.34
2022-12-31T00:29:04.732Z,100141.75
2022-12-31T00:31:37.692Z,100139.19
2022-12-31T00:34:06.586Z,100122.75
2022-12-31T00:36:37.701Z,100133.13
2022-12-31T00:39:08.275Z,100129.69
2022-12-31T00:41:36.717Z,100131.41
2022-12-31T00:44:04.017Z,100133.16
2022-12-31T00:46:31.840Z,100129.72
2022-12-31T00:48:59.048Z,100134.03
2022-12-31T00:51:27.591Z,100134.03
2022-12-31T00:53:56.539Z,100116.75
2022-12-31T00:56:26.751Z,100124.56
2022-12-31T00:58:54.247Z,100128.00
2022-12-31T01:01:30.713Z,100134.88
2022-12-31T01:04:00.846Z,100128.84
2022-12-31T01:06:27.927Z,100134.06
2022-12-31T01:08:55.629Z,100121.91
2022-12-31T01:11:23.860Z,100125.34
2022-12-31T01:13:59.928Z,100129.66
2022-12-31T01:16:31.323Z,100132.22
2022-12-31T01:19:03.871Z,100111.44
2022-12-31T01:21:31.983Z,100122.72
2022-12-31T01:23:59.617Z,100134.78
2022-12-31T01:26:28.046Z,100141.66
2022-12-31T01:28:55.133Z,100136.47
2022-12-31T01:31:23.831Z,100133.91
2022-12-31T01:33:52.013Z,100135.59
2022-12-31T01:36:25.873Z,100122.63
2022-12-31T01:38:55.333Z,100134.72
2022-12-31T01:41:31.094Z,100141.59
2022-12-31T01:44:01.635Z,100146.75
2022-12-31T01:46:37.880Z,100147.63
2022-12-31T01:49:19.205Z,100147.63
2022-12-31T01:51:50.624Z,100128.63
2022-12-31T01:54:21.137Z,100131.22
2022-12-31T01:56:50.292Z,100138.97
2022-12-31T01:59:19.373Z,100149.34
2022-12-31T02:01:48.360Z,100149.34
2022-12-31T02:04:16.472Z,100151.88
2022-12-31T02:06:53.511Z,100161.34
2022-12-31T02:09:20.656Z,100157.00
2022-12-31T02:11:47.777Z,100144.84
2022-12-31T02:14:18.900Z,100146.66
2022-12-31T02:16:51.575Z,100135.47
2022-12-31T02:19:42.577Z,100126.84
2022-12-31T02:22:36.794Z,100106.94
2022-12-31T02:25:31.490Z,100130.28
2022-12-31T02:28:29.378Z,100119.97
2022-12-31T02:31:03.177Z,100112.22
2022-12-31T02:33:35.258Z,100106.16
2022-12-31T02:36:08.859Z,100090.59
2022-12-31T02:38:41.655Z,100100.09
2022-12-31T02:41:33.463Z,100097.47
2022-12-31T02:44:00.556Z,100099.16
2022-12-31T02:46:46.558Z,100105.19
2022-12-31T02:49:39.895Z,100106.91
2022-12-31T02:52:18.005Z,100111.97
2022-12-31T02:54:58.802Z,100124.91
2022-12-31T02:57:44.452Z,100135.34
2022-12-31T03:00:33.464Z,100145.63
2022-12-31T03:03:02.039Z,100144.75
2022-12-31T03:05:34.397Z,100153.34
2022-12-31T03:08:01.489Z,100152.59
2022-12-31T03:10:28.650Z,100160.22
2022-12-31T03:12:55.729Z,100160.19
2022-12-31T03:15:27.170Z,100161.88
2022-12-31T03:17:57.690Z,100148.94
2022-12-31T03:20:54.430Z,100162.75
2022-12-31T03:23:29.168Z,100148.97
2022-12-31T03:25:57.220Z,100149.72
2022-12-31T03:28:27.598Z,100158.34
2022-12-31T03:31:00.889Z,100168.66
2022-12-31T03:33:32.985Z,100173.78
2022-12-31T03:36:03.900Z,100172.03
2022-12-31T03:38:30.920Z,100169.50
2022-12-31T03:40:57.905Z,100166.91
2022-12-31T03:43:24.948Z,100165.13
2022-12-31T03:45:53.980Z,100167.72
2022-12-31T03:48:22.703Z,100150.44
2022-12-31T03:50:50.089Z,100140.97
2022-12-31T03:53:17.487Z,100143.56
2022-12-31T03:55:44.778Z,100146.97
2022-12-31T03:58:11.857Z,100155.63
2022-12-31T04:00:39.017Z,100156.47
2022-12-31T04:03:06.816Z,100150.41
2022-12-31T04:05:33.954Z,100146.97
2022-12-31T04:08:01.082Z,100127.97
2022-12-31T04:10:28.344Z,100147.78
2022-12-31T04:12:55.393Z,100144.34
2022-12-31T04:15:22.396Z,100132.31
2022-12-31T04:17:49.496Z,100119.38
2022-12-31T04:20:16.977Z,100124.50
2022-12-31T04:22:44.252Z,100130.47
2022-12-31T04:25:12.864Z,100123.56
2022-12-31T04:27:41.266Z,100104.63
2022-12-31T04:30:09.145Z,100109.75
2022-12-31T04:32:36.712Z,100116.59
2022-12-31T04:35:03.898Z,100132.13
2022-12-31T04:37:30.892Z,100116.66
2022-12-31T04:40:03.534Z,100130.44
2022-12-31T04:42:33.835Z,100127.78
2022-12-31T04:45:00.940Z,100127.78
2022-12-31T04:47:28.165Z,100133.91
2022-12-31T04:49:55.188Z,100137.31
2022-12-31T04:52:22.667Z,100128.66
2022-12-31T04:54:50.074Z,100150.25
2022-12-31T04:57:17.128Z,100151.94
2022-12-31T04:59:44.173Z,100141.50
2022-12-31T05:02:11.378Z,100138.88
2022-12-31T05:04:38.594Z,100138.91
2022-12-31T05:07:05.669Z,100125.16
2022-12-31T05:09:32.727Z,100118.25
2022-12-31T05:11:59.779Z,100134.66
2022-12-31T05:14:26.838Z,100144.13
2022-12-31T05:16:54.300Z,100134.63
2022-12-31T05:19:21.526Z,100132.09
2022-12-31T05:22:08.488Z,100138.06
2022-12-31T05:24:36.455Z,100140.69
2022-12-31T05:27:03.845Z,100128.78
2022-12-31T05:29:30.944Z,100131.38
2022-12-31T05:31:57.973Z,100133.06
2022-12-31T05:34:25.030Z,100149.50
2022-12-31T05:36:52.145Z,100137.44
2022-12-31T05:39:19.372Z,100142.66
2022-12-31T05:41:46.433Z,100150.41
2022-12-31T05:44:13.429Z,100163.38
2022-12-31T05:46:40.524Z,100146.19
2022-12-31T05:49:07.908Z,100143.63
2022-12-31T05:51:34.907Z,100137.63
2022-12-31T05:54:01.889Z,100128.09
2022-12-31T05:56:28.894Z,100127.38
2022-12-31T05:58:56.008Z,100137.72
2022-12-31T06:01:23.095Z,100132.53
2022-12-31T06:03:50.288Z,100135.13
2022-12-31T06:06:17.407Z,100134.34
2022-12-31T06:08:44.405Z,100142.13
2022-12-31T06:11:11.402Z,100135.25
2022-12-31T06:13:38.465Z,100138.69
2022-12-31T06:16:09.258Z,100131.81
2022-12-31T06:18:37.732Z,100150.81
2022-12-31T06:21:05.060Z,100152.59
2022-12-31T06:23:32.036Z,100150.03
2022-12-31T06:26:05.710Z,100153.44
2022-12-31T06:28:33.827Z,100149.06
2022-12-31T06:31:06.722Z,100149.19
2022-12-31T06:33:34.878Z,100148.34
2022-12-31T06:36:04.353Z,100152.72
2022-12-31T06:38:33.998Z,100157.03
2022-12-31T06:41:10.102Z,100167.34
2022-12-31T06:43:38.674Z,100172.50
2022-12-31T06:46:09.148Z,100165.66
2022-12-31T06:48:38.293Z,100176.03
2022-12-31T06:51:11.882Z,100171.81
2022-12-31T06:53:42.087Z,100177.88
2022-12-31T06:56:14.850Z,100176.13
2022-12-31T06:58:42.198Z,100173.59
2022-12-31T07:01:14.940Z,100177.09
2022-12-31T07:03:58.489Z,100162.47
2022-12-31T07:06:54.865Z,100165.06
2022-12-31T07:09:39.879Z,100159.09
2022-12-31T07:12:19.909Z,100162.59
2022-12-31T07:14:57.885Z,100158.31
2022-12-31T07:17:43.342Z,100147.13
2022-12-31T07:20:14.094Z,100145.41
2022-12-31T07:22:41.469Z,100148.03
2022-12-31T07:25:14.399Z,100139.41
2022-12-31T07:27:52.713Z,100147.16
2022-12-31T07:30:22.855Z,100154.09
2022-12-31T07:33:08.359Z,100151.50
2022-12-31T07:36:06.631Z,100162.75
2022-12-31T07:39:12.091Z,100164.50
2022-12-31T07:41:44.232Z,100171.44
2022-12-31T07:44:47.986Z,100171.44
2022-12-31T07:47:27.103Z,100181.88
2022-12-31T07:49:55.588Z,100179.28
2022-12-31T07:52:22.895Z,100168.03
2022-12-31T07:54:50.152Z,100174.06
2022-12-31T07:57:18.788Z,100185.31
2022-12-31T08:00:07.929Z,100193.09
2022-12-31T08:03:16.173Z,100186.19
2022-12-31T08:05:50.271Z,100181.03
2022-12-31T08:08:38.831Z,100191.38
2022-12-31T08:11:41.134Z,100194.00
2022-12-31T08:14:11.572Z,100193.13
2022-12-31T08:16:39.389Z,100192.25
2022-12-31T08:19:13.791Z,100197.47
2022-12-31T08:21:56.849Z,100202.63
2022-12-31T08:24:54.640Z,100198.31
2022-12-31T08:27:27.233Z,100202.66
2022-12-31T08:30:02.925Z,100185.38
2022-12-31T08:32:38.596Z,100200.91
2022-12-31T08:35:16.628Z,100203.50
2022-12-31T08:38:08.547Z,100220.81
2022-12-31T08:40:51.349Z,100238.97
2022-12-31T08:43:55.689Z,100238.13
2022-12-31T08:46:29.317Z,100251.06
2022-12-31T08:48:56.450Z,100251.06
2022-12-31T08:51:25.640Z,100269.25
2022-12-31T08:53:53.460Z,100261.47
2022-12-31T08:56:28.388Z,100282.19
2022-12-31T08:59:08.531Z,100271.78
2022-12-31T09:01:52.897Z,100289.94
2022-12-31T09:04:30.735Z,100297.72
2022-12-31T09:07:03.442Z,100286.41
2022-12-31T09:09:56.480Z,100302.84
2022-12-31T09:12:36.556Z,100303.69
2022-12-31T09:15:13.082Z,100307.16
2022-12-31T09:17:50.127Z,100309.72
2022-12-31T09:20:42.997Z,100312.31
2022-12-31T09:23:13.180Z,100314.06
2022-12-31T09:25:58.617Z,100317.59
2022-12-31T09:28:48.396Z,100302.94
2022-12-31T09:31:21.745Z,100329.78
2022-12-31T09:34:02.110Z,100310.72
2022-12-31T09:36:48.349Z,100313.31
2022-12-31T09:39:42.228Z,100317.66
2022-12-31T09:42:51.542Z,100296.00
2022-12-31T09:45:31.012Z,100310.78
2022-12-31T09:48:07.655Z,100326.31
2022-12-31T09:50:53.977Z,100324.63
2022-12-31T09:53:35.044Z,100327.25
2022-12-31T09:56:13.788Z,100333.31
2022-12-31T09:58:58.671Z,100330.75
2022-12-31T10:01:56.976Z,100323.81
2022-12-31T10:04:58.172Z,100332.47
2022-12-31T10:07:53.902Z,100337.66
2022-12-31T10:10:30.165Z,100336.81
2022-12-31T10:13:25.085Z,100336.81
2022-12-31T10:16:22.810Z,100317.78
2022-12-31T10:19:22.494Z,100331.63
2022-12-31T10:22:08.207Z,100325.56
2022-12-31T10:24:41.048Z,100332.47
2022-12-31T10:27:16.855Z,100326.41
2022-12-31T10:29:48.390Z,100321.22
2022-12-31T10:32:23.735Z,100328.13
2022-12-31T10:35:13.683Z,100335.94
2022-12-31T10:37:56.603Z,100338.53
2022-12-31T10:40:42.402Z,100346.34
2022-12-31T10:43:34.056Z,100347.19
2022-12-31T10:46:29.675Z,100339.38
2022-12-31T10:49:02.423Z,100337.69
2022-12-31T10:51:48.073Z,100361.06
2022-12-31T10:54:33.154Z,100342.00
2022-12-31T10:57:01.070Z,100332.47
2022-12-31T10:59:46.036Z,100344.59
2022-12-31T11:02:28.297Z,100347.19
2022-12-31T11:05:37.572Z,100339.41
2022-12-31T11:08:34.652Z,100345.47
2022-12-31T11:11:26.559Z,100327.28
2022-12-31T11:14:31.217Z,100356.72
2022-12-31T11:16:58.777Z,100341.13
2022-12-31T11:19:48.874Z,100361.06
2022-12-31T11:22:47.736Z,100353.25
2022-12-31T11:25:49.993Z,100353.28
2022-12-31T11:28:40.315Z,100337.66
2022-12-31T11:31:22.481Z,100345.47
2022-12-31T11:34:01.878Z,100347.22
2022-12-31T11:36:37.661Z,100351.53
2022-12-31T11:39:31.510Z,100358.47
2022-12-31T11:42:36.564Z,100366.28
2022-12-31T11:45:27.777Z,100362.81
2022-12-31T11:48:32.168Z,100374.91
2022-12-31T11:51:37.553Z,100367.13
2022-12-31T11:54:42.739Z,100356.72
2022-12-31T11:57:24.336Z,100359.31
2022-12-31T12:00:01.395Z,100348.09
2022-12-31T12:02:34.076Z,100342.88
2022-12-31T12:05:10.746Z,100348.94
2022-12-31T12:07:38.301Z,100331.59
2022-12-31T12:10:23.835Z,100337.69
2022-12-31T12:12:54.288Z,100335.09
2022-12-31T12:15:29.242Z,100322.06
2022-12-31T12:17:58.767Z,100330.75
2022-12-31T12:20:32.227Z,100329.00
2022-12-31T12:23:01.238Z,100335.97
2022-12-31T12:25:39.505Z,100328.16
2022-12-31T12:28:18.490Z,100324.69
2022-12-31T12:30:52.768Z,100323.81
2022-12-31T12:33:21.480Z,100309.06
2022-12-31T12:35:48.609Z,100321.22
2022-12-31T12:38:19.057Z,100317.72
2022-12-31T12:41:00.517Z,100316.00
2022-12-31T12:43:34.077Z,100272.69
2022-12-31T12:46:27.866Z,100306.50
2022-12-31T12:48:57.556Z,100316.00
2022-12-31T12:52:01.955Z,100307.31
2022-12-31T12:54:43.844Z,100315.97
2022-12-31T12:57:20.939Z,100318.59
2022-12-31T13:00:07.657Z,100327.25
2022-12-31T13:03:12.069Z,100334.16
2022-12-31T13:05:52.598Z,100335.06
2022-12-31T13:08:30.276Z,100332.44
2022-12-31T13:11:29.960Z,100337.63
2022-12-31T13:14:20.997Z,100361.91
2022-12-31T13:17:18.694Z,100347.19
2022-12-31T13:19:50.916Z,100347.16
2022-12-31T13:22:33.315Z,100358.47
2022-12-31T13:25:21.699Z,100354.97
2022-12-31T13:27:54.000Z,100341.16
2022-12-31T13:30:24.841Z,100355.00
2022-12-31T13:33:25.398Z,100351.53
2022-12-31T13:35:56.267Z,100351.53
2022-12-31T13:38:23.222Z,100359.31
2022-12-31T13:41:09.103Z,100346.31
2022-12-31T13:44:13.158Z,100353.25
2022-12-31T13:46:48.101Z,100353.28
2022-12-31T13:49:33.469Z,100360.19
2022-12-31T13:52:18.561Z,100343.75
2022-12-31T13:54:56.020Z,100344.59
2022-12-31T13:57:41.931Z,100368.00
2022-12-31T14:00:50.196Z,100334.22
2022-12-31T14:03:33.754Z,100360.19
2022-12-31T14:06:19.340Z,100354.13
2022-12-31T14:08:46.736Z,100351.53
2022-12-31T14:11:55.614Z,100355.88
2022-12-31T14:14:56.024Z,100352.41
2022-12-31T14:17:34.282Z,100331.63
2022-12-31T14:20:23.078Z,100354.97
2022-12-31T14:23:12.296Z,100342.00
2022-12-31T14:25:53.569Z,100349.78
2022-12-31T14:28:40.371Z,100353.25
2022-12-31T14:31:38.406Z,100361.03
2022-12-31T14:34:37.723Z,100398.31
2022-12-31T14:37:19.987Z,100371.44
2022-12-31T14:40:06.666Z,100391.38
2022-12-31T14:42:43.134Z,100398.31
2022-12-31T14:45:31.879Z,100396.56
2022-12-31T14:48:01.825Z,100391.34
2022-12-31T14:50:30.570Z,100389.66
2022-12-31T14:53:00.001Z,100389.63
2022-12-31T14:55:37.836Z,100400.03
2022-12-31T14:58:30.223Z,100403.50
2022-12-31T15:01:04.486Z,100408.69
2022-12-31T15:03:31.646Z,100420.84
2022-12-31T15:06:22.753Z,100407.81
2022-12-31T15:08:50.024Z,100412.16
2022-12-31T15:11:37.813Z,100419.09
2022-12-31T15:14:17.000Z,100413.88
2022-12-31T15:17:04.189Z,100402.66
2022-12-31T15:19:58.813Z,100404.38
2022-12-31T15:22:48.382Z,100406.94
2022-12-31T15:25:40.306Z,100402.63
2022-12-31T15:28:29.027Z,100392.25
2022-12-31T15:31:02.988Z,100395.72
2022-12-31T15:33:37.648Z,100399.16
2022-12-31T15:36:17.939Z,100388.78
2022-12-31T15:38:45.717Z,100384.44
2022-12-31T15:41:18.515Z,100370.59
2022-12-31T15:43:51.131Z,100374.03
2022-12-31T15:46:28.086Z,100368.00
2022-12-31T15:49:15.846Z,100383.59
2022-12-31T15:51:46.975Z,100379.22
2022-12-31T15:54:21.751Z,100387.94
2022-12-31T15:56:50.250Z,100392.28
2022-12-31T15:59:18.842Z,100387.03
2022-12-31T16:01:47.669Z,100393.97
2022-12-31T16:04:42.570Z,100404.38
2022-12-31T16:07:14.385Z,100396.53
2022-12-31T16:09:41.830Z,100395.72
2022-12-31T16:12:19.135Z,100387.91
2022-12-31T16:14:51.596Z,100397.41
2022-12-31T16:17:28.144Z,100396.53
2022-12-31T16:19:58.207Z,100406.09
2022-12-31T16:22:29.608Z,100393.94
2022-12-31T16:27:50.148Z,100384.38
2022-12-31T16:30:29.427Z,100384.41
2022-12-31T16:33:01.773Z,100375.72
2022-12-31T16:35:34.105Z,100380.94
2022-12-31T16:38:10.610Z,100389.56
2022-12-31T16:40:38.443Z,100386.09
2022-12-31T16:43:24.151Z,100360.09
2022-12-31T16:45:52.151Z,100391.31
2022-12-31T16:48:21.146Z,100377.41
2022-12-31T16:50:51.943Z,100379.13
2022-12-31T16:53:24.860Z,100392.16
2022-12-31T16:56:04.768Z,100393.03
2022-12-31T16:58:37.624Z,100396.47
2022-12-31T17:01:18.327Z,100393.88
2022-12-31T17:03:50.454Z,100386.94
2022-12-31T17:06:20.274Z,100374.81
2022-12-31T17:09:07.912Z,100380.00
2022-12-31T17:11:41.859Z,100372.19
2022-12-31T17:14:08.894Z,100385.19
2022-12-31T17:16:42.673Z,100391.25
2022-12-31T17:19:30.915Z,100386.03
2022-12-31T17:21:58.003Z,100388.69
2022-12-31T17:24:25.269Z,100376.56
2022-12-31T17:26:52.830Z,100370.50
2022-12-31T17:29:26.085Z,100373.97
2022-12-31T17:32:00.425Z,100376.59
2022-12-31T17:34:33.665Z,100374.84
2022-12-31T17:37:18.299Z,100377.44
2022-12-31T17:40:17.395Z,100376.56
2022-12-31T17:42:50.394Z,100378.28
2022-12-31T17:45:22.156Z,100356.63
2022-12-31T17:47:52.406Z,100369.66
2022-12-31T17:50:23.608Z,100377.44
2022-12-31T17:52:55.645Z,100378.31
2022-12-31T17:55:23.122Z,100387.84
2022-12-31T17:57:57.832Z,100385.28
2022-12-31T18:00:26.868Z,100393.06
2022-12-31T18:02:54.499Z,100389.59
2022-12-31T18:05:23.719Z,100391.31
2022-12-31T18:07:51.915Z,100400.00
2022-12-31T18:10:22.173Z,100393.03
2022-12-31T18:12:50.009Z,100390.41
2022-12-31T18:15:21.809Z,100382.63
2022-12-31T18:17:49.292Z,100383.50
2022-12-31T18:20:16.876Z,100390.44
2022-12-31T18:22:45.042Z,100392.19
2022-12-31T18:25:22.860Z,100392.16
2022-12-31T18:27:51.582Z,100366.19
2022-12-31T18:30:19.004Z,100390.47
2022-12-31T18:32:46.887Z,100390.44
2022-12-31T18:36:07.662Z,100393.91
2022-12-31T18:38:14.184Z,100388.72
2022-12-31T18:40:44.279Z,100393.91
2022-12-31T18:43:18.778Z,100390.41
2022-12-31T18:45:47.321Z,100393.00
2022-12-31T18:48:14.604Z,100394.75
2022-12-31T18:50:42.138Z,100399.94
2022-12-31T18:53:15.622Z,100393.00
2022-12-31T18:55:51.979Z,100399.94
2022-12-31T18:58:19.156Z,100392.97
2022-12-31T19:00:47.407Z,100401.63
2022-12-31T19:03:23.044Z,100404.25
2022-12-31T19:05:52.061Z,100407.72
2022-12-31T19:08:23.376Z,100411.19
2022-12-31T19:10:51.891Z,100414.69
2022-12-31T19:13:20.291Z,100416.38
2022-12-31T19:15:50.177Z,100414.66
2022-12-31T19:18:17.603Z,100415.50
2022-12-31T19:20:44.888Z,100406.00
2022-12-31T19:23:17.990Z,100429.41
2022-12-31T19:25:46.932Z,100426.78
2022-12-31T19:28:25.034Z,100433.72
2022-12-31T19:30:52.997Z,100422.44
2022-12-31T19:33:20.386Z,100432.00
2022-12-31T19:35:47.725Z,100406.84
2022-12-31T19:38:18.828Z,100406.84
2022-12-31T19:40:46.870Z,100405.16
2022-12-31T19:43:16.243Z,100410.38
2022-12-31T19:45:44.026Z,100413.84
2022-12-31T19:48:16.876Z,100402.56
2022-12-31T19:50:46.770Z,100407.75
2022-12-31T19:53:20.417Z,100425.97
2022-12-31T19:55:48.677Z,100424.22
2022-12-31T19:58:21.731Z,100441.56
2022-12-31T20:00:55.692Z,100435.50
2022-12-31T20:03:25.872Z,100445.06
2022-12-31T20:06:03.074Z,100438.97
2022-12-31T20:08:30.114Z,100439.00
2022-12-31T20:10:58.809Z,100434.63
2022-12-31T20:13:26.977Z,100429.44
2022-12-31T20:15:54.626Z,100439.84
2022-12-31T20:18:23.120Z,100434.66
2022-12-31T20:20:55.515Z,100447.69
2022-12-31T20:23:22.879Z,100442.47
2022-12-31T20:25:57.669Z,100453.72
2022-12-31T20:28:24.762Z,100460.66
2022-12-31T20:30:52.303Z,100461.53
2022-12-31T20:33:20.205Z,100443.28
2022-12-31T20:35:47.357Z,100434.66
2022-12-31T20:38:14.538Z,100438.09
2022-12-31T20:40:46.669Z,100434.63
2022-12-31T20:43:14.288Z,100445.94
2022-12-31T20:45:41.656Z,100448.53
2022-12-31T20:48:08.817Z,100448.50
2022-12-31T20:50:36.705Z,100450.22
2022-12-31T20:53:03.754Z,100464.13
2022-12-31T20:55:31.461Z,100457.19
2022-12-31T20:57:58.733Z,100464.09
2022-12-31T21:00:25.785Z,100455.44
2022-12-31T21:03:02.201Z,100460.66
2022-12-31T21:05:35.603Z,100446.78
2022-12-31T21:08:03.907Z,100467.56
2022-12-31T21:10:30.934Z,100459.75
2022-12-31T21:12:57.982Z,100469.31
2022-12-31T21:15:25.077Z,100472.78
2022-12-31T21:17:52.161Z,100458.00
2022-12-31T21:20:19.166Z,100467.56
2022-12-31T21:22:46.208Z,100463.22
2022-12-31T21:25:13.349Z,100477.94
2022-12-31T21:27:40.406Z,100458.94
2022-12-31T21:30:19.407Z,100484.03
2022-12-31T21:32:47.338Z,100491.84
2022-12-31T21:35:42.304Z,100485.78
2022-12-31T21:38:02.592Z,100500.56
2022-12-31T21:40:31.379Z,100511.84
2022-12-31T21:42:58.430Z,100517.91
2022-12-31T21:45:25.473Z,100510.97
2022-12-31T21:48:10.944Z,100517.03
2022-12-31T21:50:38.273Z,100520.50
2022-12-31T21:53:05.379Z,100514.47
2022-12-31T21:55:51.131Z,100512.72
2022-12-31T21:58:27.439Z,100510.13
2022-12-31T22:01:15.256Z,100503.19
2022-12-31T22:03:43.235Z,100491.94
2022-12-31T22:06:16.133Z,100504.94
2022-12-31T22:08:45.671Z,100509.25
2022-12-31T22:11:13.593Z,100503.19
2022-12-31T22:13:40.970Z,100507.53
2022-12-31T22:16:08.850Z,100507.53
2022-12-31T22:18:39.102Z,100493.63
2022-12-31T22:21:18.306Z,100490.19
2022-12-31T22:23:56.641Z,100489.31
2022-12-31T22:26:26.476Z,100504.06
2022-12-31T22:28:58.846Z,100510.13
2022-12-31T22:31:30.000Z,100527.44
2022-12-31T22:33:58.571Z,100498.84
2022-12-31T22:36:25.661Z,100509.25
2022-12-31T22:38:57.182Z,100511.84
2022-12-31T22:41:25.754Z,100517.03
2022-12-31T22:44:02.704Z,100513.56
2022-12-31T22:46:31.374Z,100510.09
2022-12-31T22:49:00.290Z,100510.09
2022-12-31T22:51:56.281Z,100515.28
2022-12-31T22:54:15.601Z,100526.56
2022-12-31T22:56:42.841Z,100526.56
2022-12-31T22:59:10.137Z,100530.03
2022-12-31T23:01:38.191Z,100517.88
2022-12-31T23:04:05.555Z,100529.13
2022-12-31T23:06:43.069Z,100524.81
2022-12-31T23:09:30.640Z,100543.03
2022-12-31T23:11:58.151Z,100536.09
2022-12-31T23:14:44.071Z,100530.91
2022-12-31T23:17:38.611Z,100544.75
2022-12-31T23:20:26.535Z,100547.38
2022-12-31T23:23:11.757Z,100550.84
2022-12-31T23:25:46.880Z,100562.13
2022-12-31T23:28:20.794Z,100563.00
2022-12-31T23:30:47.860Z,100560.38
2022-12-31T23:33:18.713Z,100569.06
2022-12-31T23:35:45.987Z,100568.19
2022-12-31T23:38:13.963Z,100555.16
2022-12-31T23:40:41.228Z,100567.31
2022-12-31T23:43:20.394Z,100573.41
2022-12-31T23:45:52.390Z,100557.75
2022-12-31T23:48:19.553Z,100566.47
2022-12-31T23:50:53.054Z,100579.47
2022-12-31T23:53:22.655Z,100582.09
2022-12-31T23:55:50.304Z,100587.28
2022-12-31T23:58:17.460Z,100575.16
